Terminal Aerodrome Forecast
Issued by NWS

Home | Current Version | Previous Version | Text Only | Print | Product List | Glossary On
Versions: 1 2 3 4 5 6 7 8 9 10 11 12 13
000
FTUS46 KOTX 212329
TAFMWH
TAF
KMWH 212329Z 2200/2224 22006KT P6SM -SHRA BKN050 OVC090
     FM220200 35006KT P6SM SCT070 BKN200
     FM221600 01008KT P6SM SCT080 BKN150=

USA.gov is the U.S. government's official web portal to all federal, state and local government web resources and services.